Time;durP1;ratioP1;P1;durP2;ratioP2;P2;SDS_P1;SDS_P2;PMS_P1;PMS_P2;Temp;Humidity;BMP_temperature;BMP_pressure;BME280_temperature;BME280_humidity;BME280_pressure;Samples;Min_cycle;Max_cycle;Signal;HPM_P1;HPM_P2
2022/11/02 00:01:42;;;;;;;19.40;11.35;;;;;;;;;;5158025;27;20072;-75
2022/11/02 00:04:27;;;;;;;19.30;11.88;;;;;;;;;;5158107;27;20067;-75
2022/11/02 00:07:13;;;;;;;17.50;11.18;;;;;;;;;;5158469;27;20010;-75
2022/11/02 00:09:58;;;;;;;16.30;11.38;;;;;;;;;;5158391;27;20015;-76
2022/11/02 00:12:44;;;;;;;18.08;11.95;;;;;;;;;;5142828;27;20018;-75
2022/11/02 00:15:31;;;;;;;18.52;11.20;;;;;;;;;;5156681;27;20023;-74
2022/11/02 00:18:17;;;;;;;19.63;10.95;;;;;;;;;;5157508;27;20033;-75
2022/11/02 00:21:03;;;;;;;19.70;10.98;;;;;;;;;;5156916;27;20113;-74
2022/11/02 00:23:49;;;;;;;19.65;11.10;;;;;;;;;;5158234;27;20449;-74
2022/11/02 00:26:35;;;;;;;23.27;12.30;;;;;;;;;;5156396;27;20023;-74
2022/11/02 00:29:23;;;;;;;19.27;13.20;;;;;;;;;;5157481;27;20334;-75
2022/11/02 00:32:08;;;;;;;19.75;11.20;;;;;;;;;;5158464;27;20044;-74
2022/11/02 00:34:54;;;;;;;19.35;11.27;;;;;;;;;;5158164;27;20106;-75
2022/11/02 00:37:39;;;;;;;19.52;11.40;;;;;;;;;;5158048;27;20460;-74
2022/11/02 00:40:25;;;;;;;19.55;11.68;;;;;;;;;;5157948;27;20030;-74
2022/11/02 00:43:11;;;;;;;18.05;11.43;;;;;;;;;;5159388;27;20444;-76
2022/11/02 00:45:56;;;;;;;18.80;11.20;;;;;;;;;;5141533;27;20035;-75
2022/11/02 00:48:42;;;;;;;16.73;11.15;;;;;;;;;;5142574;27;20014;-75
2022/11/02 00:51:28;;;;;;;19.80;11.77;;;;;;;;;;5157784;27;20101;-76
2022/11/02 00:54:13;;;;;;;19.27;11.48;;;;;;;;;;5141733;27;20087;-75
2022/11/02 00:56:59;;;;;;;19.73;10.90;;;;;;;;;;5156929;27;20033;-75
2022/11/02 00:59:44;;;;;;;20.02;10.85;;;;;;;;;;5141667;27;20356;-75
2022/11/02 01:02:31;;;;;;;13.88;9.85;;;;;;;;;;5156954;27;20059;-75
2022/11/02 01:05:16;;;;;;;17.02;11.13;;;;;;;;;;5156594;27;20075;-75
2022/11/02 01:08:02;;;;;;;17.25;11.43;;;;;;;;;;5156802;27;20025;-75
2022/11/02 01:10:48;;;;;;;15.60;11.00;;;;;;;;;;5155873;27;20075;-76
2022/11/02 01:13:33;;;;;;;17.10;10.73;;;;;;;;;;5142166;27;20029;-75
2022/11/02 01:16:19;;;;;;;22.77;10.85;;;;;;;;;;5156210;27;20011;-75
2022/11/02 01:19:05;;;;;;;17.35;10.30;;;;;;;;;;5141099;27;20021;-75
2022/11/02 01:21:51;;;;;;;19.13;10.30;;;;;;;;;;5141035;27;20360;-76
2022/11/02 01:24:36;;;;;;;18.98;10.75;;;;;;;;;;5156763;27;20101;-75
2022/11/02 01:27:22;;;;;;;20.33;10.85;;;;;;;;;;5156165;27;20022;-75
2022/11/02 01:30:08;;;;;;;16.85;10.63;;;;;;;;;;5142083;27;20351;-75
2022/11/02 01:32:53;;;;;;;17.92;10.77;;;;;;;;;;5156733;27;20329;-76
2022/11/02 01:35:39;;;;;;;19.40;10.85;;;;;;;;;;5157069;27;20029;-75
2022/11/02 01:38:24;;;;;;;16.88;9.85;;;;;;;;;;5157167;27;20477;-75
2022/11/02 01:41:11;;;;;;;14.38;9.88;;;;;;;;;;5141517;27;20026;-75
2022/11/02 01:44:00;;;;;;;17.40;10.82;;;;;;;;;;5156612;27;20061;-75
2022/11/02 01:46:46;;;;;;;20.95;11.98;;;;;;;;;;5155826;27;20043;-75
2022/11/02 01:49:33;;;;;;;14.35;10.65;;;;;;;;;;5155700;27;20022;-75
2022/11/02 01:52:20;;;;;;;23.35;11.43;;;;;;;;;;5156161;27;20033;-75
2022/11/02 01:55:10;;;;;;;17.35;10.80;;;;;;;;;;5155883;27;20029;-76
2022/11/02 01:58:00;;;;;;;20.85;11.20;;;;;;;;;;5139917;27;20022;-75
2022/11/02 02:00:46;;;;;;;16.92;11.05;;;;;;;;;;5155913;27;20015;-75
2022/11/02 02:03:32;;;;;;;18.10;11.20;;;;;;;;;;5156381;27;20051;-75
2022/11/02 02:06:18;;;;;;;21.08;11.80;;;;;;;;;;5140186;27;20057;-75
2022/11/02 02:09:04;;;;;;;18.92;12.15;;;;;;;;;;5155992;27;20093;-74
2022/11/02 02:11:50;;;;;;;22.17;11.50;;;;;;;;;;5155608;27;20011;-74
2022/11/02 02:14:36;;;;;;;16.90;10.90;;;;;;;;;;5154953;27;20101;-74
2022/11/02 02:17:30;;;;;;;20.75;11.60;;;;;;;;;;5140220;27;20029;-74
2022/11/02 02:20:51;;;;;;;20.05;11.45;;;;;;;;;;5155770;27;20123;-75
2022/11/02 02:23:54;;;;;;;18.30;11.98;;;;;;;;;;5072654;28;20036;-75
2022/11/02 02:26:45;;;;;;;21.05;11.40;;;;;;;;;;5154561;27;20110;-74
2022/11/02 02:29:31;;;;;;;18.95;10.98;;;;;;;;;;5139663;27;20105;-75
2022/11/02 02:32:16;;;;;;;20.45;12.07;;;;;;;;;;5155313;27;20351;-75
2022/11/02 02:35:14;;;;;;;20.45;12.52;;;;;;;;;;5139946;27;20034;-75
2022/11/02 02:38:00;;;;;;;25.08;11.88;;;;;;;;;;5139575;27;20368;-75
2022/11/02 02:40:55;;;;;;;21.70;12.20;;;;;;;;;;5140413;27;20050;-74
2022/11/02 02:43:52;;;;;;;22.13;11.75;;;;;;;;;;5139775;27;20018;-75
2022/11/02 02:46:49;;;;;;;17.85;11.55;;;;;;;;;;5154482;27;20491;-75
2022/11/02 02:49:41;;;;;;;19.38;12.50;;;;;;;;;;5159394;27;20019;-74
2022/11/02 02:52:29;;;;;;;21.90;11.95;;;;;;;;;;5162212;27;20053;-76
2022/11/02 02:55:17;;;;;;;22.65;13.40;;;;;;;;;;5161665;27;20105;-76
2022/11/02 02:58:05;;;;;;;27.45;12.30;;;;;;;;;;5162009;27;20329;-74
2022/11/02 03:00:54;;;;;;;22.55;12.32;;;;;;;;;;5161923;27;20329;-75
2022/11/02 03:03:40;;;;;;;21.02;12.73;;;;;;;;;;5146189;27;20019;-76
2022/11/02 03:06:28;;;;;;;24.10;13.30;;;;;;;;;;5161884;27;20110;-75
2022/11/02 03:09:30;;;;;;;22.63;13.77;;;;;;;;;;5161391;27;20030;-74
2022/11/02 03:12:22;;;;;;;25.35;13.75;;;;;;;;;;5147287;27;20014;-75
2022/11/02 03:15:12;;;;;;;21.92;13.40;;;;;;;;;;5162068;27;20041;-75
2022/11/02 03:18:05;;;;;;;22.17;13.50;;;;;;;;;;5145946;27;20089;-75
2022/11/02 03:20:50;;;;;;;22.83;13.57;;;;;;;;;;5146538;27;20034;-75
2022/11/02 03:23:38;;;;;;;24.70;12.90;;;;;;;;;;5161866;27;20018;-74
2022/11/02 03:26:30;;;;;;;23.27;14.55;;;;;;;;;;5160820;27;20025;-74
2022/11/02 03:29:16;;;;;;;22.80;14.48;;;;;;;;;;5146045;27;20019;-74
2022/11/02 03:32:11;;;;;;;23.33;14.82;;;;;;;;;;5161954;27;20019;-75
2022/11/02 03:34:57;;;;;;;24.77;13.98;;;;;;;;;;5146870;27;20106;-74
2022/11/02 03:37:49;;;;;;;23.58;13.65;;;;;;;;;;5161009;27;20091;-75
2022/11/02 03:40:38;;;;;;;23.75;14.35;;;;;;;;;;5161654;27;20508;-73
2022/11/02 03:43:24;;;;;;;26.17;13.20;;;;;;;;;;5161881;27;20022;-74
2022/11/02 03:46:11;;;;;;;24.42;13.57;;;;;;;;;;5161975;27;20061;-75
2022/11/02 03:48:56;;;;;;;22.50;12.95;;;;;;;;;;5160776;27;20041;-75
2022/11/02 03:51:43;;;;;;;23.30;13.02;;;;;;;;;;5161569;27;20463;-75
2022/11/02 03:54:38;;;;;;;26.10;12.95;;;;;;;;;;5161193;27;20015;-75
2022/11/02 03:57:27;;;;;;;22.48;13.55;;;;;;;;;;5161431;27;20018;-75
2022/11/02 04:00:13;;;;;;;24.27;13.38;;;;;;;;;;5144335;27;20090;-75
2022/11/02 04:03:01;;;;;;;21.67;12.98;;;;;;;;;;5157866;27;20325;-75
2022/11/02 04:05:47;;;;;;;24.38;12.63;;;;;;;;;;5158594;27;20022;-76
2022/11/02 04:08:37;;;;;;;22.75;12.85;;;;;;;;;;5158502;27;20019;-75
2022/11/02 04:14:41;;;;;;;21.73;13.55;;;;;;;;;;5124225;27;20057;-75
2022/11/02 04:20:30;;;;;;;20.88;13.20;;;;;;;;;;5157902;27;20025;-76
2022/11/02 04:26:21;;;;;;;22.05;13.05;;;;;;;;;;5158488;27;20026;-75
2022/11/02 04:29:07;;;;;;;23.15;13.65;;;;;;;;;;5157607;27;20019;-74
2022/11/02 04:31:52;;;;;;;20.20;12.85;;;;;;;;;;5141864;27;20026;-74
2022/11/02 04:34:38;;;;;;;17.52;12.15;;;;;;;;;;5157738;27;20029;-75
2022/11/02 04:40:27;;;;;;;22.98;13.13;;;;;;;;;;5158048;27;20344;-74
2022/11/02 04:43:13;;;;;;;21.65;13.15;;;;;;;;;;5141554;27;20023;-74
2022/11/02 04:45:59;;;;;;;21.45;12.85;;;;;;;;;;5157550;27;20046;-74
2022/11/02 04:48:44;;;;;;;22.80;12.55;;;;;;;;;;5157857;27;20038;-74
2022/11/02 04:51:30;;;;;;;28.00;14.30;;;;;;;;;;5142794;27;20057;-74
2022/11/02 04:54:16;;;;;;;24.05;13.30;;;;;;;;;;5157821;27;20022;-74
2022/11/02 04:57:01;;;;;;;26.85;13.15;;;;;;;;;;5163406;27;20046;-74
2022/11/02 04:59:47;;;;;;;26.55;13.27;;;;;;;;;;5170367;27;20042;-74
2022/11/02 05:02:32;;;;;;;26.67;13.60;;;;;;;;;;5161428;27;20352;-75
2022/11/02 05:05:18;;;;;;;23.27;12.88;;;;;;;;;;5156730;27;20029;-77
2022/11/02 05:08:03;;;;;;;22.52;12.55;;;;;;;;;;5141249;27;20419;-74
2022/11/02 05:10:52;;;;;;;30.20;12.60;;;;;;;;;;5155798;27;20019;-74
2022/11/02 05:13:39;;;;;;;21.58;11.98;;;;;;;;;;5156225;27;20019;-73
2022/11/02 05:16:24;;;;;;;20.77;12.50;;;;;;;;;;5156522;27;20022;-74
2022/11/02 05:19:10;;;;;;;20.63;12.75;;;;;;;;;;5156886;27;20067;-73
2022/11/02 05:21:56;;;;;;;22.58;11.55;;;;;;;;;;5156863;27;20222;-74
2022/11/02 05:24:41;;;;;;;23.55;13.10;;;;;;;;;;5159259;27;20026;-74
2022/11/02 05:27:27;;;;;;;26.48;12.80;;;;;;;;;;5148752;27;20023;-75
2022/11/02 05:30:13;;;;;;;25.35;12.80;;;;;;;;;;5157991;27;20032;-75
2022/11/02 05:32:58;;;;;;;22.33;13.43;;;;;;;;;;5156276;27;20022;-73
2022/11/02 05:35:44;;;;;;;25.15;13.40;;;;;;;;;;5141519;27;20079;-74
2022/11/02 05:38:30;;;;;;;32.10;14.25;;;;;;;;;;5156545;27;20065;-74
2022/11/02 05:41:15;;;;;;;24.42;13.23;;;;;;;;;;5156142;27;20022;-74
2022/11/02 05:44:01;;;;;;;24.23;13.30;;;;;;;;;;5158119;27;20018;-75
2022/11/02 05:46:46;;;;;;;24.40;13.75;;;;;;;;;;5140434;27;20031;-75
2022/11/02 05:49:32;;;;;;;22.15;12.88;;;;;;;;;;5156661;27;20010;-75
2022/11/02 05:52:18;;;;;;;23.75;13.43;;;;;;;;;;5156834;27;20105;-75
2022/11/02 05:55:03;;;;;;;22.33;13.18;;;;;;;;;;5155967;27;20018;-75
2022/11/02 05:57:53;;;;;;;20.55;13.98;;;;;;;;;;5155464;27;20144;-73
2022/11/02 06:00:39;;;;;;;22.77;13.73;;;;;;;;;;5140712;27;20023;-75
2022/11/02 06:03:24;;;;;;;27.90;14.00;;;;;;;;;;5155589;27;20440;-74
2022/11/02 06:06:11;;;;;;;26.90;15.05;;;;;;;;;;5156378;27;20019;-74
2022/11/02 06:08:56;;;;;;;29.20;15.38;;;;;;;;;;5142663;27;20018;-74
2022/11/02 06:11:42;;;;;;;24.20;15.23;;;;;;;;;;5156494;27;20042;-75
2022/11/02 06:14:27;;;;;;;24.65;14.63;;;;;;;;;;5140427;27;20023;-75
2022/11/02 06:17:13;;;;;;;31.27;14.80;;;;;;;;;;5155831;27;20117;-76
2022/11/02 06:19:59;;;;;;;29.83;16.40;;;;;;;;;;5156329;27;20019;-79
2022/11/02 06:22:44;;;;;;;28.80;13.25;;;;;;;;;;5155233;27;20026;-78
2022/11/02 06:25:30;;;;;;;27.98;14.32;;;;;;;;;;5153065;27;20014;-76
2022/11/02 06:28:15;;;;;;;28.05;12.85;;;;;;;;;;5154721;27;20045;-75
2022/11/02 06:31:01;;;;;;;25.67;12.55;;;;;;;;;;5139082;27;20078;-76
2022/11/02 06:33:46;;;;;;;24.30;13.00;;;;;;;;;;5154520;27;20010;-75
2022/11/02 06:36:32;;;;;;;26.58;13.23;;;;;;;;;;5153495;27;20103;-74
2022/11/02 06:39:18;;;;;;;24.13;12.45;;;;;;;;;;5154693;27;20026;-75
2022/11/02 06:42:03;;;;;;;22.35;12.25;;;;;;;;;;5138704;27;20022;-74
2022/11/02 06:44:49;;;;;;;26.27;12.65;;;;;;;;;;5153639;27;20039;-76
2022/11/02 06:47:35;;;;;;;21.85;11.80;;;;;;;;;;5153526;27;20163;-76
2022/11/02 06:50:23;;;;;;;20.67;11.45;;;;;;;;;;5154079;27;20026;-77
2022/11/02 06:53:08;;;;;;;30.88;12.13;;;;;;;;;;5154619;27;20105;-75
2022/11/02 06:55:55;;;;;;;26.15;11.25;;;;;;;;;;5153536;27;20109;-74
2022/11/02 06:58:40;;;;;;;20.98;11.55;;;;;;;;;;5153940;27;20014;-75
2022/11/02 07:01:26;;;;;;;24.45;11.05;;;;;;;;;;5138560;27;20022;-73
2022/11/02 07:04:12;;;;;;;27.10;10.80;;;;;;;;;;5138415;27;20101;-75
2022/11/02 07:06:57;;;;;;;24.58;10.30;;;;;;;;;;5152723;27;20440;-75
2022/11/02 07:09:43;;;;;;;19.77;10.52;;;;;;;;;;5153709;27;20094;-75
2022/11/02 07:12:31;;;;;;;20.42;10.40;;;;;;;;;;5139151;27;20440;-74
2022/11/02 07:15:16;;;;;;;18.60;10.80;;;;;;;;;;5138611;27;20053;-73
2022/11/02 07:18:02;;;;;;;24.15;11.43;;;;;;;;;;5138570;27;20019;-72
2022/11/02 07:20:48;;;;;;;23.02;11.65;;;;;;;;;;5154808;27;20102;-74
2022/11/02 07:23:34;;;;;;;19.17;11.38;;;;;;;;;;5154288;27;20118;-73
2022/11/02 07:26:19;;;;;;;18.80;10.93;;;;;;;;;;5138586;27;20149;-72
2022/11/02 07:29:05;;;;;;;18.55;9.68;;;;;;;;;;5154469;27;20496;-73
2022/11/02 07:31:50;;;;;;;26.05;10.85;;;;;;;;;;5153393;27;20097;-74
2022/11/02 07:34:36;;;;;;;28.13;10.32;;;;;;;;;;5154414;27;20093;-75
2022/11/02 07:37:21;;;;;;;21.90;10.02;;;;;;;;;;5158120;27;20023;-73
2022/11/02 07:40:08;;;;;;;26.25;11.18;;;;;;;;;;5143014;27;20019;-72
2022/11/02 07:42:54;;;;;;;20.83;10.63;;;;;;;;;;5160671;27;20041;-73
2022/11/02 07:45:40;;;;;;;21.98;11.40;;;;;;;;;;5148562;27;20030;-74
2022/11/02 07:48:25;;;;;;;18.90;10.55;;;;;;;;;;5162256;27;20508;-73
2022/11/02 07:51:11;;;;;;;21.98;10.73;;;;;;;;;;5159744;27;20014;-73
2022/11/02 07:53:57;;;;;;;24.63;12.35;;;;;;;;;;5158432;27;20015;-74
2022/11/02 07:56:45;;;;;;;18.63;11.00;;;;;;;;;;5157024;27;20019;-73
2022/11/02 07:59:31;;;;;;;27.02;12.25;;;;;;;;;;5157417;27;20019;-73
2022/11/02 08:02:17;;;;;;;29.20;13.32;;;;;;;;;;5157324;27;20052;-73
2022/11/02 08:05:02;;;;;;;22.80;13.77;;;;;;;;;;5157492;27;20029;-73
2022/11/02 08:07:55;;;;;;;26.17;13.63;;;;;;;;;;5156725;27;20042;-73
2022/11/02 08:10:41;;;;;;;20.60;13.05;;;;;;;;;;5157639;27;20073;-73
2022/11/02 08:13:26;;;;;;;22.55;13.32;;;;;;;;;;5156509;27;20026;-73
2022/11/02 08:16:12;;;;;;;26.08;15.00;;;;;;;;;;5158560;27;20143;-78
2022/11/02 08:18:58;;;;;;;22.60;14.65;;;;;;;;;;5141522;27;20030;-79
2022/11/02 08:21:43;;;;;;;26.98;14.45;;;;;;;;;;5157474;27;20098;-78
2022/11/02 08:24:29;;;;;;;26.15;14.20;;;;;;;;;;5156926;27;20018;-77
2022/11/02 08:27:14;;;;;;;24.73;14.73;;;;;;;;;;5156198;27;20019;-77
2022/11/02 08:30:00;;;;;;;27.67;15.60;;;;;;;;;;5141230;27;20057;-77
2022/11/02 08:32:46;;;;;;;26.20;14.75;;;;;;;;;;5157058;27;20007;-78
2022/11/02 08:35:32;;;;;;;25.08;15.90;;;;;;;;;;5157177;27;20448;-78
2022/11/02 08:38:21;;;;;;;26.35;16.52;;;;;;;;;;5142413;27;20069;-76
2022/11/02 08:41:06;;;;;;;27.02;16.48;;;;;;;;;;5156617;27;20344;-76
2022/11/02 08:43:52;;;;;;;25.73;17.15;;;;;;;;;;5155853;27;20029;-75
2022/11/02 08:46:38;;;;;;;25.67;17.30;;;;;;;;;;5155676;27;20125;-76
2022/11/02 08:49:23;;;;;;;36.05;18.25;;;;;;;;;;5156553;27;20075;-75
2022/11/02 08:52:09;;;;;;;30.67;18.05;;;;;;;;;;5155038;27;20029;-75
2022/11/02 08:54:54;;;;;;;31.30;17.88;;;;;;;;;;5155572;27;20030;-75
2022/11/02 08:57:47;;;;;;;31.63;18.70;;;;;;;;;;5156362;27;20026;-75
2022/11/02 09:00:33;;;;;;;24.25;16.65;;;;;;;;;;5142491;27;20019;-75
2022/11/02 09:03:19;;;;;;;28.23;18.05;;;;;;;;;;5158301;27;20030;-75
2022/11/02 09:06:05;;;;;;;28.73;17.70;;;;;;;;;;5158025;27;20027;-75
2022/11/02 09:08:50;;;;;;;31.33;18.52;;;;;;;;;;5157472;27;20364;-78
2022/11/02 09:11:36;;;;;;;29.85;18.02;;;;;;;;;;5157526;27;20026;-76
2022/11/02 09:14:22;;;;;;;31.95;17.65;;;;;;;;;;5157847;27;20106;-76
2022/11/02 09:17:07;;;;;;;28.23;16.55;;;;;;;;;;5157473;27;20022;-77
2022/11/02 09:19:53;;;;;;;35.10;16.95;;;;;;;;;;5142511;27;20033;-77
2022/11/02 09:22:38;;;;;;;27.50;16.17;;;;;;;;;;5143507;27;20352;-78
2022/11/02 09:25:24;;;;;;;31.02;16.25;;;;;;;;;;5143863;27;20022;-77
2022/11/02 09:28:10;;;;;;;31.27;15.07;;;;;;;;;;5157541;27;20021;-77
2022/11/02 09:30:56;;;;;;;33.75;15.50;;;;;;;;;;5158649;27;20040;-77
2022/11/02 09:33:41;;;;;;;29.60;14.35;;;;;;;;;;5158157;27;20105;-78
2022/11/02 09:36:27;;;;;;;27.60;15.75;;;;;;;;;;5157591;27;20014;-78
2022/11/02 09:39:12;;;;;;;29.45;15.73;;;;;;;;;;5158420;27;20089;-77
2022/11/02 09:42:16;;;;;;;24.58;14.85;;;;;;;;;;5158533;27;20022;-78
2022/11/02 09:45:07;;;;;;;27.58;16.30;;;;;;;;;;5158743;27;20074;-77
2022/11/02 09:47:58;;;;;;;30.10;16.48;;;;;;;;;;5158142;27;20364;-78
2022/11/02 09:50:54;;;;;;;28.08;15.15;;;;;;;;;;5162881;27;20014;-76
2022/11/02 09:54:12;;;;;;;26.15;15.30;;;;;;;;;;5143266;27;20011;-76
2022/11/02 09:56:59;;;;;;;30.17;15.52;;;;;;;;;;5125121;27;20019;-78
2022/11/02 09:59:45;;;;;;;31.50;15.85;;;;;;;;;;5162704;27;20019;-79
2022/11/02 10:02:51;;;;;;;30.95;15.73;;;;;;;;;;5161474;27;20015;-79
2022/11/02 10:05:50;;;;;;;27.92;15.35;;;;;;;;;;5147480;27;20025;-77
2022/11/02 10:08:55;;;;;;;26.73;14.65;;;;;;;;;;5145412;27;20022;-76
2022/11/02 10:11:58;;;;;;;26.00;15.15;;;;;;;;;;5142874;27;20300;-79
2022/11/02 10:14:59;;;;;;;25.13;14.57;;;;;;;;;;5158782;27;20023;-76
2022/11/02 10:17:46;;;;;;;24.50;14.63;;;;;;;;;;5157922;27;20030;-80
2022/11/02 10:20:35;;;;;;;26.40;14.27;;;;;;;;;;5143929;27;20429;-79
2022/11/02 10:23:25;;;;;;;25.33;14.45;;;;;;;;;;5158704;27;20079;-78
2022/11/02 10:26:20;;;;;;;22.52;13.35;;;;;;;;;;5158087;27;20027;-77
2022/11/02 10:29:09;;;;;;;24.38;13.57;;;;;;;;;;5145422;27;20352;-77
2022/11/02 10:31:55;;;;;;;53.85;14.15;;;;;;;;;;5144691;27;20385;-79
2022/11/02 10:34:42;;;;;;;25.08;13.68;;;;;;;;;;5160762;27;20048;-77
2022/11/02 10:37:30;;;;;;;24.48;13.30;;;;;;;;;;5144055;27;20019;-80
2022/11/02 10:40:37;;;;;;;24.15;13.10;;;;;;;;;;5142383;27;20384;-78
2022/11/02 10:43:41;;;;;;;20.40;13.02;;;;;;;;;;5146276;27;20074;-78
2022/11/02 10:46:27;;;;;;;25.13;13.35;;;;;;;;;;5144241;27;20089;-77
2022/11/02 10:49:18;;;;;;;26.42;13.60;;;;;;;;;;5160427;27;20015;-78
2022/11/02 10:52:04;;;;;;;26.45;13.82;;;;;;;;;;5159558;27;20401;-77
2022/11/02 10:54:50;;;;;;;24.38;13.40;;;;;;;;;;5164268;27;20023;-79
2022/11/02 10:57:37;;;;;;;22.90;14.68;;;;;;;;;;5162348;27;20019;-80
2022/11/02 11:00:30;;;;;;;25.50;14.70;;;;;;;;;;5160439;27;20026;-77
2022/11/02 11:03:17;;;;;;;32.08;16.02;;;;;;;;;;5158064;27;20027;-78
2022/11/02 11:06:03;;;;;;;28.33;15.43;;;;;;;;;;5155157;27;20010;-78
2022/11/02 11:08:50;;;;;;;27.27;16.30;;;;;;;;;;5138875;27;20325;-77
2022/11/02 11:11:37;;;;;;;26.00;16.75;;;;;;;;;;5158224;27;20031;-77
2022/11/02 11:14:24;;;;;;;29.23;17.45;;;;;;;;;;5159726;27;20462;-77
2022/11/02 11:17:17;;;;;;;35.38;19.00;;;;;;;;;;5144500;27;20552;-78
2022/11/02 11:20:04;;;;;;;37.30;19.63;;;;;;;;;;5158107;27;20360;-78
2022/11/02 11:23:06;;;;;;;31.30;18.45;;;;;;;;;;5159116;27;20046;-75
2022/11/02 11:25:53;;;;;;;30.75;16.98;;;;;;;;;;5158156;27;20019;-76
2022/11/02 11:28:50;;;;;;;30.30;16.60;;;;;;;;;;5160100;27;20006;-76
2022/11/02 11:31:36;;;;;;;26.08;16.52;;;;;;;;;;5144232;27;20030;-78
2022/11/02 11:34:24;;;;;;;28.15;14.93;;;;;;;;;;5144998;27;20449;-78
2022/11/02 11:37:10;;;;;;;25.58;15.77;;;;;;;;;;5159466;27;20026;-77
2022/11/02 11:40:01;;;;;;;28.88;16.05;;;;;;;;;;5158450;27;20021;-76
2022/11/02 11:42:48;;;;;;;31.23;17.15;;;;;;;;;;5159130;27;20030;-77
2022/11/02 11:45:33;;;;;;;28.15;14.30;;;;;;;;;;5143035;27;20047;-76
2022/11/02 11:48:26;;;;;;;23.50;13.95;;;;;;;;;;5144374;27;20361;-76
2022/11/02 11:51:26;;;;;;;34.03;14.27;;;;;;;;;;5159045;27;20033;-76
2022/11/02 11:54:21;;;;;;;24.17;12.52;;;;;;;;;;5159279;27;20029;-77
2022/11/02 11:57:26;;;;;;;24.77;13.57;;;;;;;;;;5158550;27;20038;-78
2022/11/02 12:00:26;;;;;;;28.63;13.07;;;;;;;;;;5159828;27;20014;-77
2022/11/02 12:03:13;;;;;;;22.40;12.50;;;;;;;;;;5157524;27;20018;-76
2022/11/02 12:05:58;;;;;;;21.20;12.15;;;;;;;;;;5156477;27;20428;-77
2022/11/02 12:08:59;;;;;;;24.45;13.25;;;;;;;;;;5158867;27;20037;-76
2022/11/02 12:11:44;;;;;;;25.88;13.00;;;;;;;;;;5158598;27;20067;-78
2022/11/02 12:14:56;;;;;;;22.27;12.35;;;;;;;;;;5143284;27;20417;-77
2022/11/02 12:18:02;;;;;;;28.23;13.07;;;;;;;;;;5157442;27;20015;-74
2022/11/02 12:20:51;;;;;;;46.28;36.03;;;;;;;;;;5143736;27;20027;-76
2022/11/02 12:23:48;;;;;;;23.60;12.73;;;;;;;;;;5141716;27;20022;-78
2022/11/02 12:26:37;;;;;;;20.20;11.73;;;;;;;;;;5156817;27;20065;-73
2022/11/02 12:29:41;;;;;;;19.05;11.40;;;;;;;;;;5158622;27;20362;-77
2022/11/02 12:32:27;;;;;;;20.10;10.38;;;;;;;;;;5142836;27;20011;-77
2022/11/02 12:35:24;;;;;;;24.70;11.48;;;;;;;;;;5141774;27;20033;-76
2022/11/02 12:38:25;;;;;;;24.00;10.25;;;;;;;;;;5141485;27;20030;-76
2022/11/02 12:41:12;;;;;;;23.90;10.30;;;;;;;;;;5157269;27;20027;-75
2022/11/02 12:44:05;;;;;;;21.95;10.93;;;;;;;;;;5156832;27;20391;-77
2022/11/02 12:47:07;;;;;;;19.48;10.70;;;;;;;;;;5156514;27;20487;-76
2022/11/02 12:50:02;;;;;;;21.67;10.00;;;;;;;;;;5141306;27;20090;-76
2022/11/02 12:52:57;;;;;;;19.08;10.38;;;;;;;;;;5157507;27;20075;-77
2022/11/02 12:55:47;;;;;;;17.17;10.50;;;;;;;;;;5156373;27;20022;-76
2022/11/02 12:58:34;;;;;;;23.85;9.82;;;;;;;;;;5141149;27;20023;-78
2022/11/02 13:01:19;;;;;;;21.05;10.60;;;;;;;;;;5157122;27;20022;-75
2022/11/02 13:04:14;;;;;;;19.60;11.23;;;;;;;;;;5142087;27;20082;-77
2022/11/02 13:07:11;;;;;;;22.00;11.07;;;;;;;;;;5142161;27;20448;-75
2022/11/02 13:10:02;;;;;;;22.45;11.73;;;;;;;;;;5157176;27;20072;-76
2022/11/02 13:12:50;;;;;;;22.25;10.52;;;;;;;;;;5141963;27;20011;-78
2022/11/02 13:15:37;;;;;;;20.85;11.13;;;;;;;;;;5141505;27;20027;-77
2022/11/02 13:18:25;;;;;;;16.85;11.10;;;;;;;;;;5156223;27;20053;-76
2022/11/02 13:21:13;;;;;;;26.92;11.15;;;;;;;;;;5140267;27;20018;-76
2022/11/02 13:23:59;;;;;;;20.77;11.07;;;;;;;;;;5156214;27;20022;-76
2022/11/02 13:26:47;;;;;;;23.60;10.65;;;;;;;;;;5140626;27;20025;-77
2022/11/02 13:29:47;;;;;;;25.15;11.82;;;;;;;;;;5156550;27;20023;-77
2022/11/02 13:32:39;;;;;;;20.55;10.85;;;;;;;;;;5156031;27;20007;-77
2022/11/02 13:35:30;;;;;;;21.67;11.35;;;;;;;;;;5155634;27;20018;-78
2022/11/02 13:38:38;;;;;;;22.10;11.20;;;;;;;;;;5155627;27;20047;-78
2022/11/02 13:41:24;;;;;;;20.20;10.65;;;;;;;;;;5141095;27;20018;-77
2022/11/02 13:44:28;;;;;;;18.05;11.30;;;;;;;;;;5157004;27;20460;-77
2022/11/02 13:47:28;;;;;;;22.13;11.23;;;;;;;;;;5141793;27;20061;-79
2022/11/02 13:50:16;;;;;;;25.13;11.88;;;;;;;;;;5140666;27;20011;-80
2022/11/02 13:53:04;;;;;;;19.50;11.18;;;;;;;;;;5140900;27;20050;-77
2022/11/02 13:55:58;;;;;;;19.88;11.52;;;;;;;;;;5156484;27;20015;-78
2022/11/02 13:58:49;;;;;;;17.63;10.80;;;;;;;;;;5142573;27;20022;-79
2022/11/02 14:01:38;;;;;;;22.88;10.50;;;;;;;;;;5141971;27;20026;-78
2022/11/02 14:04:24;;;;;;;19.10;9.70;;;;;;;;;;5156001;27;20419;-78
2022/11/02 14:07:21;;;;;;;20.30;8.35;;;;;;;;;;5156023;27;20463;-80
2022/11/02 14:10:08;;;;;;;20.80;8.40;;;;;;;;;;5156313;27;20023;-74
2022/11/02 14:12:54;;;;;;;15.77;8.30;;;;;;;;;;5155715;27;20015;-76
2022/11/02 14:15:41;;;;;;;20.85;13.02;;;;;;;;;;5157397;27;20022;-76
2022/11/02 14:18:29;;;;;;;16.25;8.05;;;;;;;;;;5165552;27;20050;-75
2022/11/02 14:21:35;;;;;;;16.30;8.52;;;;;;;;;;5159726;27;20034;-75
2022/11/02 14:24:33;;;;;;;15.35;7.75;;;;;;;;;;5127731;27;20031;-76
2022/11/02 14:27:20;;;;;;;14.63;7.55;;;;;;;;;;5155620;27;20418;-75
2022/11/02 14:30:25;;;;;;;17.27;7.72;;;;;;;;;;5155886;27;20105;-75
2022/11/02 14:33:33;;;;;;;16.52;8.02;;;;;;;;;;5155785;27;20097;-77
2022/11/02 14:36:19;;;;;;;16.25;7.57;;;;;;;;;;5155644;27;20014;-78
2022/11/02 14:39:12;;;;;;;16.10;7.53;;;;;;;;;;5155509;27;20027;-76
2022/11/02 14:42:01;;;;;;;12.10;7.25;;;;;;;;;;5140066;27;20102;-74
2022/11/02 14:45:21;;;;;;;13.57;7.47;;;;;;;;;;5154703;27;20038;-74
2022/11/02 14:48:12;;;;;;;16.10;7.82;;;;;;;;;;5073014;28;20012;-75
2022/11/02 14:51:00;;;;;;;16.52;7.40;;;;;;;;;;5155163;27;20472;-77
2022/11/02 14:53:46;;;;;;;14.10;7.57;;;;;;;;;;5155769;27;20014;-75
2022/11/02 14:56:51;;;;;;;15.05;7.45;;;;;;;;;;5155478;27;20034;-76
2022/11/02 14:59:38;;;;;;;19.20;7.15;;;;;;;;;;5140643;27;20019;-75
2022/11/02 15:02:35;;;;;;;14.80;7.25;;;;;;;;;;5154682;27;20022;-78
2022/11/02 15:05:22;;;;;;;16.40;7.13;;;;;;;;;;5154687;27;20314;-76
2022/11/02 15:08:18;;;;;;;16.27;6.45;;;;;;;;;;5155119;27;20034;-76
2022/11/02 15:11:23;;;;;;;15.63;6.70;;;;;;;;;;5140530;27;20097;-76
2022/11/02 15:14:27;;;;;;;13.05;6.70;;;;;;;;;;5154386;27;20034;-74
2022/11/02 15:17:16;;;;;;;18.58;7.03;;;;;;;;;;5153927;27;20030;-75
2022/11/02 15:20:04;;;;;;;18.15;8.38;;;;;;;;;;5155290;27;20015;-76
2022/11/02 15:22:52;;;;;;;18.88;7.72;;;;;;;;;;5154546;27;20075;-75
2022/11/02 15:25:46;;;;;;;17.83;7.43;;;;;;;;;;5154192;27;20106;-76
2022/11/02 15:28:32;;;;;;;12.40;6.55;;;;;;;;;;5154932;27;20038;-76
2022/11/02 15:31:19;;;;;;;13.75;7.00;;;;;;;;;;5154905;27;20086;-76
2022/11/02 15:34:10;;;;;;;16.17;7.43;;;;;;;;;;5154527;27;20034;-76
2022/11/02 15:36:57;;;;;;;20.15;7.50;;;;;;;;;;5154583;27;20485;-77
2022/11/02 15:39:50;;;;;;;17.25;7.70;;;;;;;;;;5155024;27;20372;-77
2022/11/02 15:42:41;;;;;;;17.50;7.85;;;;;;;;;;5154723;27;20027;-76
2022/11/02 15:45:33;;;;;;;16.42;7.72;;;;;;;;;;5154313;27;20043;-76
2022/11/02 15:48:21;;;;;;;18.52;8.52;;;;;;;;;;5153814;27;20106;-76
2022/11/02 15:51:42;;;;;;;20.13;8.75;;;;;;;;;;5154708;27;20026;-76
2022/11/02 15:54:28;;;;;;;17.02;8.80;;;;;;;;;;5072864;28;20059;-76
2022/11/02 15:57:37;;;;;;;19.40;8.10;;;;;;;;;;5143282;27;20490;-75
2022/11/02 16:00:29;;;;;;;20.15;7.80;;;;;;;;;;5157937;27;20042;-77
2022/11/02 16:03:16;;;;;;;15.10;7.95;;;;;;;;;;5158682;27;20022;-77
2022/11/02 16:06:02;;;;;;;15.35;7.53;;;;;;;;;;5146723;27;20030;-77
2022/11/02 16:08:48;;;;;;;20.75;8.43;;;;;;;;;;5145601;27;20019;-75
2022/11/02 16:11:34;;;;;;;17.58;8.23;;;;;;;;;;5161943;27;20112;-76
2022/11/02 16:14:21;;;;;;;15.10;8.27;;;;;;;;;;5145768;27;20028;-77
2022/11/02 16:17:18;;;;;;;18.92;8.30;;;;;;;;;;5159702;27;20371;-76
2022/11/02 16:20:15;;;;;;;17.77;8.50;;;;;;;;;;5145527;27;20061;-76
2022/11/02 16:23:02;;;;;;;16.30;7.90;;;;;;;;;;5159015;27;20015;-76
2022/11/02 16:25:49;;;;;;;15.95;7.75;;;;;;;;;;5158973;27;20500;-76
2022/11/02 16:28:36;;;;;;;16.80;8.05;;;;;;;;;;5144029;27;20029;-77
2022/11/02 16:31:23;;;;;;;19.83;8.90;;;;;;;;;;5143530;27;20102;-76
2022/11/02 16:34:20;;;;;;;31.50;17.45;;;;;;;;;;5158731;27;20023;-77
2022/11/02 16:37:06;;;;;;;20.02;10.02;;;;;;;;;;5158761;27;20094;-77
2022/11/02 16:39:52;;;;;;;27.48;10.82;;;;;;;;;;5158931;27;20026;-76